createdAt,value
2022-10-17T00:02:35.953Z,15.36
2022-10-17T00:07:37.958Z,15.48
2022-10-17T00:12:39.413Z,15.45
2022-10-17T00:17:41.984Z,15.25
2022-10-17T00:22:43.688Z,15.14
2022-10-17T00:27:45.634Z,14.98
2022-10-17T00:32:47.400Z,14.99
2022-10-17T00:37:49.139Z,14.95
2022-10-17T00:42:53.070Z,14.95
2022-10-17T00:48:08.479Z,14.88
2022-10-17T00:53:11.043Z,14.86
2022-10-17T00:58:12.549Z,14.86
2022-10-17T01:03:14.483Z,14.81
2022-10-17T01:08:16.324Z,14.84
2022-10-17T01:13:46.800Z,14.85
2022-10-17T01:19:02.532Z,14.72
2022-10-17T01:24:41.203Z,14.66
2022-10-17T01:30:09.641Z,14.68
2022-10-17T01:35:28.960Z,14.72
2022-10-17T01:40:45.782Z,14.70
2022-10-17T01:45:57.212Z,14.71
2022-10-17T01:51:07.904Z,14.65
2022-10-17T01:56:13.215Z,14.54
2022-10-17T02:01:16.988Z,14.47
2022-10-17T02:06:18.654Z,14.47
2022-10-17T02:11:25.080Z,14.38
2022-10-17T02:16:41.388Z,14.34
2022-10-17T02:22:18.000Z,14.35
2022-10-17T02:27:46.795Z,14.38
2022-10-17T02:32:55.393Z,14.25
2022-10-17T02:37:58.303Z,14.24
2022-10-17T02:43:03.653Z,14.12
2022-10-17T02:48:15.426Z,14.20
2022-10-17T02:53:27.609Z,14.30
2022-10-17T02:58:33.235Z,14.31
2022-10-17T03:03:34.656Z,14.27
2022-10-17T03:08:36.068Z,14.19
2022-10-17T03:13:39.724Z,14.20
2022-10-17T03:18:43.486Z,14.21
2022-10-17T03:23:48.079Z,14.23
2022-10-17T03:28:52.028Z,14.21
2022-10-17T03:33:55.833Z,14.21
2022-10-17T03:38:57.221Z,14.07
2022-10-17T03:43:58.631Z,13.85
2022-10-17T03:49:00.249Z,13.83
2022-10-17T03:54:01.887Z,13.72
2022-10-17T03:59:03.368Z,13.69
2022-10-17T04:04:04.961Z,13.67
2022-10-17T04:09:07.095Z,13.62
2022-10-17T04:14:09.954Z,13.56
2022-10-17T04:19:13.733Z,13.58
2022-10-17T04:24:15.244Z,13.55
2022-10-17T04:29:17.241Z,13.56
2022-10-17T04:34:24.040Z,13.53
2022-10-17T04:39:25.814Z,13.44
2022-10-17T04:44:30.727Z,13.33
2022-10-17T04:49:32.240Z,13.24
2022-10-17T04:54:33.642Z,13.12
2022-10-17T04:59:35.052Z,13.10
2022-10-17T05:04:36.447Z,13.19
2022-10-17T05:09:37.919Z,13.08
2022-10-17T05:14:39.307Z,13.01
2022-10-17T05:19:40.707Z,13.02
2022-10-17T05:24:42.156Z,12.98
2022-10-17T05:29:43.548Z,12.91
2022-10-17T05:34:44.996Z,12.90
2022-10-17T05:39:50.617Z,12.89
2022-10-17T05:44:53.093Z,12.98
2022-10-17T05:49:54.509Z,13.08
2022-10-17T05:54:56.005Z,13.21
2022-10-17T05:59:57.492Z,13.40
2022-10-17T06:04:58.900Z,13.46
2022-10-17T06:10:00.339Z,13.53
2022-10-17T06:15:01.918Z,13.63
2022-10-17T06:20:04.012Z,13.65
2022-10-17T06:25:05.902Z,13.71
2022-10-17T06:30:07.939Z,13.87
2022-10-17T06:35:09.507Z,13.95
2022-10-17T06:40:12.337Z,14.11
2022-10-17T06:45:14.163Z,14.07
2022-10-17T06:50:15.645Z,14.22
2022-10-17T06:55:21.314Z,14.32
2022-10-17T07:00:26.691Z,14.43
2022-10-17T07:05:28.079Z,14.62
2022-10-17T07:10:29.653Z,14.78
2022-10-17T07:15:32.401Z,14.96
2022-10-17T07:20:34.140Z,15.16
2022-10-17T07:25:40.030Z,15.28
2022-10-17T07:30:42.488Z,15.56
2022-10-17T07:35:44.013Z,15.83
2022-10-17T07:40:45.488Z,16.13
2022-10-17T07:45:46.883Z,16.40
2022-10-17T07:50:48.805Z,16.75
2022-10-17T07:55:51.357Z,17.07
2022-10-17T08:00:52.955Z,17.28
2022-10-17T08:05:58.130Z,17.60
2022-10-17T08:11:05.439Z,17.96
2022-10-17T08:16:10.311Z,18.23
2022-10-17T08:21:13.417Z,18.54
2022-10-17T08:26:17.240Z,18.79
2022-10-17T08:31:20.127Z,18.92
2022-10-17T08:36:21.698Z,19.09
2022-10-17T08:41:44.920Z,19.40
2022-10-17T08:46:50.129Z,19.51
2022-10-17T08:52:02.844Z,19.58
2022-10-17T08:57:04.353Z,19.82
2022-10-17T09:02:43.282Z,19.98
2022-10-17T09:08:04.041Z,20.09
2022-10-17T09:13:23.860Z,20.33
2022-10-17T09:18:35.811Z,20.40
2022-10-17T09:23:59.518Z,20.57
2022-10-17T09:29:27.702Z,20.78
2022-10-17T09:34:33.008Z,20.96
2022-10-17T09:39:34.484Z,21.14
2022-10-17T09:45:04.700Z,21.29
2022-10-17T09:50:20.758Z,21.42
2022-10-17T09:55:50.730Z,21.59
2022-10-17T10:00:52.252Z,21.64
2022-10-17T10:06:13.902Z,21.71
2022-10-17T10:11:16.013Z,21.75
2022-10-17T10:16:31.405Z,21.94
2022-10-17T10:21:33.948Z,22.20
2022-10-17T10:26:45.931Z,22.16
2022-10-17T10:31:48.746Z,22.29
2022-10-17T10:37:02.106Z,22.36
2022-10-17T10:42:08.188Z,22.44
2022-10-17T10:47:18.583Z,22.54
2022-10-17T10:52:35.340Z,22.57
2022-10-17T10:57:37.742Z,22.63
2022-10-17T11:02:47.502Z,22.75
2022-10-17T11:08:24.460Z,22.76
2022-10-17T11:13:37.623Z,22.77
2022-10-17T11:18:45.586Z,22.70
2022-10-17T11:23:51.395Z,22.85
2022-10-17T11:28:54.527Z,23.03
2022-10-17T11:33:58.983Z,23.08
2022-10-17T11:39:06.079Z,23.16
2022-10-17T11:44:25.004Z,23.24
2022-10-17T11:49:38.257Z,23.31
2022-10-17T11:54:48.983Z,23.41
2022-10-17T11:59:56.218Z,23.60
2022-10-17T12:05:06.946Z,23.76
2022-10-17T12:10:37.396Z,23.85
2022-10-17T12:15:38.927Z,24.08
2022-10-17T12:20:40.443Z,24.11
2022-10-17T12:25:52.167Z,24.11
2022-10-17T12:30:58.406Z,24.12
2022-10-17T12:36:27.257Z,24.20
2022-10-17T12:41:40.806Z,24.21
2022-10-17T12:46:50.907Z,24.20
2022-10-17T12:52:16.944Z,24.12
2022-10-17T12:57:40.149Z,24.03
2022-10-17T13:02:41.987Z,24.06
2022-10-17T13:07:47.917Z,23.98
2022-10-17T13:12:51.198Z,23.91
2022-10-17T13:18:00.307Z,24.01
2022-10-17T13:23:02.005Z,23.97
2022-10-17T13:28:12.308Z,23.93
2022-10-17T13:33:28.473Z,23.91
2022-10-17T13:38:34.821Z,23.90
2022-10-17T13:43:38.906Z,23.88
2022-10-17T13:48:40.501Z,23.80
2022-10-17T13:53:44.374Z,23.78
2022-10-17T13:58:51.225Z,23.73
2022-10-17T14:04:07.254Z,23.69
2022-10-17T14:09:28.750Z,23.66
2022-10-17T14:14:37.511Z,23.67
2022-10-17T14:20:05.811Z,23.43
2022-10-17T14:25:37.139Z,23.41
2022-10-17T14:30:57.752Z,23.20
2022-10-17T14:36:01.877Z,23.14
2022-10-17T14:41:40.928Z,23.08
2022-10-17T14:46:31.123Z,23.00
2022-10-17T14:51:44.722Z,22.90
2022-10-17T14:56:55.801Z,22.75
2022-10-17T15:01:57.233Z,22.62
2022-10-17T15:06:58.687Z,22.44
2022-10-17T15:12:02.675Z,22.32
2022-10-17T15:17:12.517Z,22.16
2022-10-17T15:22:16.040Z,22.01
2022-10-17T15:27:22.946Z,21.84
2022-10-17T15:32:24.422Z,21.77
2022-10-17T15:37:25.964Z,21.61
2022-10-17T15:42:29.533Z,21.53
2022-10-17T15:47:35.327Z,21.36
2022-10-17T15:52:36.795Z,21.13
2022-10-17T15:57:42.769Z,20.84
2022-10-17T16:02:44.738Z,20.74
2022-10-17T16:07:46.811Z,20.69
2022-10-17T16:12:49.910Z,20.48
2022-10-17T16:17:52.957Z,20.51
2022-10-17T16:22:59.844Z,20.42
2022-10-17T16:28:01.647Z,20.26
2022-10-17T16:33:03.163Z,20.16
2022-10-17T16:38:06.308Z,20.04
2022-10-17T16:43:12.217Z,19.72
2022-10-17T16:48:14.443Z,19.65
2022-10-17T16:53:15.837Z,19.62
2022-10-17T16:58:17.300Z,19.49
2022-10-17T17:03:18.770Z,19.42
2022-10-17T17:08:20.228Z,19.37
2022-10-17T17:13:21.646Z,19.31
2022-10-17T17:18:23.104Z,19.39
2022-10-17T17:23:24.567Z,19.46
2022-10-17T17:28:26.743Z,19.48
2022-10-17T17:33:29.939Z,19.41
2022-10-17T17:38:33.655Z,19.32
2022-10-17T17:43:35.764Z,19.25
2022-10-17T17:48:41.040Z,19.23
2022-10-17T17:53:42.561Z,19.40
2022-10-17T17:58:46.465Z,19.29
2022-10-17T18:03:49.757Z,19.28
2022-10-17T18:08:54.235Z,19.25
2022-10-17T18:14:07.113Z,19.29
2022-10-17T18:19:11.031Z,19.22
2022-10-17T18:24:12.445Z,19.24
2022-10-17T18:29:13.844Z,19.21
2022-10-17T18:34:15.263Z,19.08
2022-10-17T18:39:16.733Z,19.05
2022-10-17T18:44:18.170Z,19.10
2022-10-17T18:49:21.687Z,19.02
2022-10-17T18:54:24.408Z,18.93
2022-10-17T18:59:25.862Z,18.91
2022-10-17T19:04:27.421Z,18.88
2022-10-17T19:09:28.883Z,18.68
2022-10-17T19:14:30.624Z,18.78
2022-10-17T19:19:32.477Z,18.77
2022-10-17T19:24:33.885Z,18.66
2022-10-17T19:29:35.314Z,18.53
2022-10-17T19:34:37.284Z,18.55
2022-10-17T19:39:38.866Z,18.43
2022-10-17T19:44:40.264Z,18.38
2022-10-17T19:49:42.903Z,18.29
2022-10-17T19:54:45.836Z,18.25
2022-10-17T19:59:48.015Z,18.16
2022-10-17T20:05:06.298Z,18.16
2022-10-17T20:10:12.307Z,18.15
2022-10-17T20:15:13.871Z,18.12
2022-10-17T20:20:15.434Z,18.15
2022-10-17T20:25:17.156Z,18.15
2022-10-17T20:30:18.755Z,18.17
2022-10-17T20:35:20.188Z,18.05
2022-10-17T20:40:36.893Z,17.93
2022-10-17T20:45:50.714Z,17.86
2022-10-17T20:50:53.199Z,17.76
2022-10-17T20:56:02.351Z,17.64
2022-10-17T21:01:08.588Z,17.64
2022-10-17T21:06:11.214Z,17.63
2022-10-17T21:11:19.097Z,17.54
2022-10-17T21:16:20.708Z,17.53
2022-10-17T21:21:26.652Z,17.39
2022-10-17T21:26:28.749Z,17.40
2022-10-17T21:31:30.227Z,17.35
2022-10-17T21:36:31.769Z,17.26
2022-10-17T21:41:33.333Z,17.13
2022-10-17T21:46:34.744Z,17.23
2022-10-17T21:51:36.182Z,17.24
2022-10-17T21:56:37.613Z,17.16
2022-10-17T22:01:41.412Z,16.98
2022-10-17T22:06:45.035Z,16.80
2022-10-17T22:11:48.969Z,16.79
2022-10-17T22:16:50.530Z,16.82
2022-10-17T22:21:52.514Z,16.90
2022-10-17T22:26:54.009Z,16.90
2022-10-17T22:31:55.412Z,16.80
2022-10-17T22:36:56.806Z,16.70
2022-10-17T22:41:58.198Z,16.72
2022-10-17T22:46:59.645Z,16.72
2022-10-17T22:52:01.068Z,16.77
2022-10-17T22:57:02.505Z,16.78
2022-10-17T23:02:04.438Z,16.71
2022-10-17T23:07:11.203Z,16.58
2022-10-17T23:12:12.596Z,16.47
2022-10-17T23:17:14.483Z,16.41
2022-10-17T23:22:15.924Z,16.41
2022-10-17T23:27:17.412Z,16.41
2022-10-17T23:32:20.542Z,16.33
2022-10-17T23:37:22.068Z,16.32
2022-10-17T23:42:23.653Z,16.22
2022-10-17T23:47:25.112Z,16.15
2022-10-17T23:52:26.521Z,16.05
2022-10-17T23:57:28.094Z,16.07
